createdAt,value
2023-01-08T00:00:00.774Z,100683.84
2023-01-08T00:01:01.442Z,100682.83
2023-01-08T00:02:02.167Z,100681.06
2023-01-08T00:03:02.877Z,100679.30
2023-01-08T00:04:04.521Z,100678.03
2023-01-08T00:05:04.617Z,100675.92
2023-01-08T00:05:13.365Z,100650.28
2023-01-08T00:06:13.316Z,100649.70
2023-01-08T00:07:14.218Z,100648.85
2023-01-08T00:08:17.152Z,100647.84
2023-01-08T00:09:17.890Z,100646.36
2023-01-08T00:10:16.484Z,100645.18
2023-01-08T00:11:16.426Z,100644.00
2023-01-08T00:12:19.542Z,100642.81
2023-01-08T00:13:17.937Z,100641.30
2023-01-08T00:14:18.693Z,100640.13
2023-01-08T00:15:21.316Z,100638.44
2023-01-08T00:16:22.071Z,100636.66
2023-01-08T00:17:22.258Z,100635.23
2023-01-08T00:18:20.663Z,100633.92
2023-01-08T00:19:21.252Z,100632.24
2023-01-08T00:20:21.392Z,100630.64
2023-01-08T00:21:22.138Z,100629.03
2023-01-08T00:22:22.207Z,100627.56
2023-01-08T00:23:22.822Z,100625.70
2023-01-08T00:24:23.880Z,100624.31
2023-01-08T00:25:23.900Z,100622.95
2023-01-08T00:26:24.534Z,100621.52
2023-01-08T00:27:24.569Z,100620.47
2023-01-08T00:28:25.317Z,100619.03
2023-01-08T00:29:26.026Z,100618.11
2023-01-08T00:30:27.090Z,100617.31
2023-01-08T00:31:27.059Z,100615.97
2023-01-08T00:32:27.894Z,100615.37
2023-01-08T00:33:28.559Z,100614.36
2023-01-08T00:34:29.376Z,100613.34
2023-01-08T00:35:29.548Z,100612.84
2023-01-08T00:36:30.184Z,100612.33
2023-01-08T00:36:44.858Z,100601.08
2023-01-08T00:37:44.169Z,100601.50
2023-01-08T00:38:42.809Z,100601.67
2023-01-08T00:39:43.064Z,100602.34
2023-01-08T00:40:43.366Z,100602.30
2023-01-08T00:41:43.181Z,100602.89
2023-01-08T00:42:43.814Z,100602.89
2023-01-08T00:43:44.503Z,100603.18
2023-01-08T00:44:45.337Z,100603.35
2023-01-08T00:45:46.028Z,100603.10
2023-01-08T00:46:46.908Z,100602.84
2023-01-08T00:47:47.858Z,100602.84
2023-01-08T00:48:48.680Z,100601.88
2023-01-08T00:49:49.006Z,100601.78
2023-01-08T00:50:49.991Z,100600.99
2023-01-08T00:51:50.853Z,100601.08
2023-01-08T00:52:51.578Z,100601.75
2023-01-08T00:53:52.486Z,100601.84
2023-01-08T00:54:53.234Z,100602.17
2023-01-08T00:55:53.621Z,100602.30
2023-01-08T00:56:54.246Z,100602.46
2023-01-08T00:57:54.904Z,100602.80
2023-01-08T00:58:55.679Z,100602.46
2023-01-08T00:59:55.826Z,100602.42
2023-01-08T01:00:56.964Z,100602.00
2023-01-08T01:01:57.839Z,100600.98
2023-01-08T01:02:58.468Z,100600.27
2023-01-08T01:03:59.211Z,100599.26
2023-01-08T01:04:59.845Z,100598.83
2023-01-08T01:06:00.298Z,100598.03
2023-01-08T01:07:00.559Z,100597.78
2023-01-08T01:07:09.710Z,100589.00
2023-01-08T01:08:10.091Z,100588.95
2023-01-08T01:09:10.154Z,100589.30
2023-01-08T01:10:10.851Z,100589.21
2023-01-08T01:11:11.145Z,100589.05
2023-01-08T01:12:11.088Z,100588.37
2023-01-08T01:13:11.635Z,100587.95
2023-01-08T01:14:11.643Z,100586.89
2023-01-08T01:15:12.619Z,100585.92
2023-01-08T01:16:13.406Z,100584.81
2023-01-08T01:17:13.561Z,100583.52
2023-01-08T01:18:14.237Z,100581.95
2023-01-08T01:19:14.885Z,100580.98
2023-01-08T01:20:15.843Z,100579.87
2023-01-08T01:21:16.453Z,100578.16
2023-01-08T01:22:16.454Z,100576.84
2023-01-08T01:23:16.651Z,100575.54
2023-01-08T01:24:17.221Z,100573.92
2023-01-08T01:25:17.992Z,100572.92
2023-01-08T01:26:18.841Z,100571.09
2023-01-08T01:27:19.388Z,100569.66
2023-01-08T01:28:19.451Z,100568.02
2023-01-08T01:29:20.092Z,100566.75
2023-01-08T01:30:20.695Z,100564.84
2023-01-08T01:31:21.707Z,100563.36
2023-01-08T01:32:22.364Z,100562.14
2023-01-08T01:33:23.227Z,100560.83
2023-01-08T01:34:23.865Z,100559.34
2023-01-08T01:35:24.402Z,100558.20
2023-01-08T01:36:25.018Z,100556.86
2023-01-08T01:36:36.720Z,100545.61
2023-01-08T01:37:37.153Z,100545.03
2023-01-08T01:38:37.797Z,100544.18
2023-01-08T01:39:38.473Z,100543.12
2023-01-08T01:40:39.101Z,100543.29
2023-01-08T01:41:39.768Z,100542.70
2023-01-08T01:42:40.097Z,100542.45
2023-01-08T01:43:40.836Z,100542.41
2023-01-08T01:44:42.188Z,100542.16
2023-01-08T01:45:41.814Z,100542.23
2023-01-08T01:46:42.303Z,100542.45
2023-01-08T01:47:42.775Z,100542.70
2023-01-08T01:48:43.580Z,100543.30
2023-01-08T01:49:43.669Z,100543.34
2023-01-08T01:50:44.254Z,100544.27
2023-01-08T01:51:44.875Z,100545.13
2023-01-08T01:52:45.405Z,100545.16
2023-01-08T01:53:45.963Z,100545.92
2023-01-08T01:54:46.512Z,100546.81
2023-01-08T01:55:47.055Z,100547.32
2023-01-08T01:56:47.573Z,100548.04
2023-01-08T01:57:47.833Z,100548.97
2023-01-08T01:58:48.276Z,100549.64
2023-01-08T01:59:48.522Z,100549.98
2023-01-08T02:00:48.941Z,100550.73
2023-01-08T02:01:49.508Z,100551.84
2023-01-08T02:02:50.209Z,100552.30
2023-01-08T02:03:51.096Z,100553.33
2023-01-08T02:04:51.815Z,100554.03
2023-01-08T02:05:52.327Z,100554.92
2023-01-08T02:06:00.966Z,100568.66
2023-01-08T02:07:01.578Z,100568.49
2023-01-08T02:08:01.970Z,100567.73
2023-01-08T02:09:02.968Z,100567.91
2023-01-08T02:10:04.634Z,100567.73
2023-01-08T02:11:04.195Z,100567.23
2023-01-08T02:12:04.796Z,100566.73
2023-01-08T02:13:05.222Z,100565.80
2023-01-08T02:14:05.812Z,100565.29
2023-01-08T02:15:06.300Z,100565.34
2023-01-08T02:16:06.902Z,100564.61
2023-01-08T02:17:07.144Z,100563.94
2023-01-08T02:18:07.827Z,100563.59
2023-01-08T02:19:08.429Z,100562.84
2023-01-08T02:20:09.122Z,100562.59
2023-01-08T02:21:09.816Z,100562.26
2023-01-08T02:22:10.530Z,100561.50
2023-01-08T02:23:11.085Z,100561.12
2023-01-08T02:24:11.140Z,100560.70
2023-01-08T02:25:11.655Z,100559.94
2023-01-08T02:26:12.166Z,100559.98
2023-01-08T02:27:12.995Z,100559.73
2023-01-08T02:28:13.477Z,100559.69
2023-01-08T02:29:13.839Z,100559.73
2023-01-08T02:30:14.311Z,100559.02
2023-01-08T02:31:14.853Z,100558.77
2023-01-08T02:32:15.133Z,100558.81
2023-01-08T02:33:15.329Z,100557.92
2023-01-08T02:34:15.385Z,100558.10
2023-01-08T02:34:27.064Z,100554.99
2023-01-08T02:35:27.553Z,100554.58
2023-01-08T02:36:27.998Z,100554.73
2023-01-08T02:37:28.469Z,100554.11
2023-01-08T02:38:28.781Z,100553.86
2023-01-08T02:39:28.924Z,100553.86
2023-01-08T02:40:29.332Z,100553.52
2023-01-08T02:41:29.345Z,100552.93
2023-01-08T02:42:30.799Z,100553.39
2023-01-08T02:43:29.960Z,100553.23
2023-01-08T02:44:30.395Z,100553.61
2023-01-08T02:45:30.856Z,100553.99
2023-01-08T02:46:31.313Z,100554.58
2023-01-08T02:47:31.840Z,100554.53
2023-01-08T02:48:32.229Z,100554.92
2023-01-08T02:49:32.830Z,100555.22
2023-01-08T02:50:33.433Z,100555.72
2023-01-08T02:51:33.958Z,100556.19
2023-01-08T02:52:34.752Z,100556.33
2023-01-08T02:53:35.306Z,100556.33
2023-01-08T02:54:35.871Z,100556.58
2023-01-08T02:55:36.783Z,100556.75
2023-01-08T02:56:36.792Z,100557.05
2023-01-08T02:57:37.659Z,100557.02
2023-01-08T02:58:38.138Z,100556.50
2023-01-08T02:59:38.835Z,100556.30
2023-01-08T03:00:39.420Z,100556.00
2023-01-08T03:01:40.016Z,100555.71
2023-01-08T03:02:40.538Z,100555.17
2023-01-08T03:03:40.935Z,100554.56
2023-01-08T03:03:49.641Z,100544.81
2023-01-08T03:04:50.011Z,100544.42
2023-01-08T03:05:50.465Z,100544.25
2023-01-08T03:06:50.842Z,100543.50
2023-01-08T03:07:51.455Z,100543.33
2023-01-08T03:08:52.041Z,100543.25
2023-01-08T03:09:52.834Z,100543.17
2023-01-08T03:10:53.483Z,100542.95
2023-01-08T03:11:53.460Z,100542.87
2023-01-08T03:12:54.119Z,100543.13
2023-01-08T03:13:54.929Z,100543.30
2023-01-08T03:14:55.570Z,100543.21
2023-01-08T03:15:56.118Z,100543.67
2023-01-08T03:16:56.925Z,100543.34
2023-01-08T03:17:56.929Z,100543.09
2023-01-08T03:18:57.341Z,100542.70
2023-01-08T03:19:57.981Z,100542.03
2023-01-08T03:20:58.727Z,100541.23
2023-01-08T03:21:59.266Z,100541.19
2023-01-08T03:22:59.968Z,100541.06
2023-01-08T03:24:00.736Z,100541.19
2023-01-08T03:25:01.425Z,100540.89
2023-01-08T03:26:01.702Z,100541.11
2023-01-08T03:27:02.362Z,100541.91
2023-01-08T03:28:03.342Z,100542.20
2023-01-08T03:29:03.585Z,100542.20
2023-01-08T03:30:04.528Z,100541.83
2023-01-08T03:31:05.052Z,100541.74
2023-01-08T03:32:05.593Z,100541.36
2023-01-08T03:33:06.265Z,100541.31
2023-01-08T03:34:06.802Z,100541.11
2023-01-08T03:34:16.512Z,100551.34
2023-01-08T03:35:17.075Z,100550.93
2023-01-08T03:36:17.544Z,100550.17
2023-01-08T03:37:18.279Z,100550.34
2023-01-08T03:38:18.714Z,100550.51
2023-01-08T03:39:19.389Z,100550.84
2023-01-08T03:40:20.042Z,100551.19
2023-01-08T03:41:20.504Z,100552.20
2023-01-08T03:42:20.871Z,100552.65
2023-01-08T03:43:21.425Z,100553.16
2023-01-08T03:44:21.689Z,100553.83
2023-01-08T03:45:22.097Z,100554.17
2023-01-08T03:46:22.294Z,100554.38
2023-01-08T03:47:22.864Z,100555.02
2023-01-08T03:48:23.113Z,100555.59
2023-01-08T03:49:23.666Z,100556.45
2023-01-08T03:50:24.114Z,100556.81
2023-01-08T03:51:24.703Z,100556.31
2023-01-08T03:52:25.023Z,100556.15
2023-01-08T03:53:25.794Z,100556.15
2023-01-08T03:54:26.384Z,100555.56
2023-01-08T03:55:27.144Z,100555.17
2023-01-08T03:56:27.998Z,100555.27
2023-01-08T03:57:28.685Z,100554.46
2023-01-08T03:58:29.291Z,100554.30
2023-01-08T03:59:30.066Z,100553.16
2023-01-08T04:00:30.789Z,100552.91
2023-01-08T04:01:31.427Z,100552.73
2023-01-08T04:02:32.129Z,100552.61
2023-01-08T04:03:32.753Z,100552.05
2023-01-08T04:04:33.459Z,100552.23
2023-01-08T04:04:42.727Z,100549.66
2023-01-08T04:05:43.404Z,100549.98
2023-01-08T04:06:44.335Z,100549.41
2023-01-08T04:07:45.144Z,100548.89
2023-01-08T04:08:46.108Z,100547.63
2023-01-08T04:09:46.732Z,100547.47
2023-01-08T04:10:47.256Z,100546.55
2023-01-08T04:11:48.120Z,100545.82
2023-01-08T04:12:48.666Z,100545.15
2023-01-08T04:13:49.304Z,100544.56
2023-01-08T04:14:49.813Z,100544.14
2023-01-08T04:15:50.557Z,100544.06
2023-01-08T04:16:50.537Z,100544.09
2023-01-08T04:17:51.313Z,100543.93
2023-01-08T04:18:51.905Z,100544.90
2023-01-08T04:19:52.524Z,100545.23
2023-01-08T04:20:53.098Z,100545.36
2023-01-08T04:21:53.971Z,100545.31
2023-01-08T04:22:54.661Z,100545.64
2023-01-08T04:23:55.319Z,100545.27
2023-01-08T04:24:55.730Z,100545.60
2023-01-08T04:25:56.602Z,100545.98
2023-01-08T04:26:57.084Z,100545.34
2023-01-08T04:27:57.897Z,100545.47
2023-01-08T04:28:58.370Z,100545.25
2023-01-08T04:29:58.726Z,100544.63
2023-01-08T04:30:59.269Z,100544.42
2023-01-08T04:31:59.802Z,100544.04
2023-01-08T04:33:00.403Z,100543.36
2023-01-08T04:34:01.107Z,100542.55
2023-01-08T04:34:10.781Z,100536.73
2023-01-08T04:35:11.289Z,100536.14
2023-01-08T04:36:11.843Z,100535.30
2023-01-08T04:37:12.463Z,100534.24
2023-01-08T04:38:12.819Z,100533.56
2023-01-08T04:39:13.365Z,100533.40
2023-01-08T04:40:13.775Z,100532.90
2023-01-08T04:41:14.377Z,100532.98
2023-01-08T04:42:14.732Z,100533.02
2023-01-08T04:43:15.649Z,100532.55
2023-01-08T04:44:16.175Z,100532.73
2023-01-08T04:45:16.686Z,100532.59
2023-01-08T04:46:17.338Z,100533.02
2023-01-08T04:47:17.586Z,100533.19
2023-01-08T04:48:18.313Z,100532.89
2023-01-08T04:49:18.750Z,100532.73
2023-01-08T04:50:19.176Z,100532.92
2023-01-08T04:51:19.610Z,100532.63
2023-01-08T04:52:19.971Z,100532.30
2023-01-08T04:53:20.438Z,100532.72
2023-01-08T04:54:21.319Z,100532.16
2023-01-08T04:55:21.977Z,100531.75
2023-01-08T04:56:22.703Z,100531.58
2023-01-08T04:57:23.289Z,100531.70
2023-01-08T04:58:23.784Z,100531.03
2023-01-08T04:59:24.698Z,100530.14
2023-01-08T05:00:25.325Z,100530.06
2023-01-08T05:01:26.134Z,100529.50
2023-01-08T05:02:26.549Z,100528.41
2023-01-08T05:03:27.089Z,100527.32
2023-01-08T05:04:27.658Z,100526.06
2023-01-08T05:04:36.341Z,100510.69
2023-01-08T05:05:37.287Z,100510.61
2023-01-08T05:06:38.149Z,100510.86
2023-01-08T05:07:38.496Z,100511.02
2023-01-08T05:08:39.250Z,100510.35
2023-01-08T05:09:39.868Z,100509.76
2023-01-08T05:10:40.478Z,100509.42
2023-01-08T05:11:41.036Z,100509.09
2023-01-08T05:12:41.464Z,100508.30
2023-01-08T05:13:41.917Z,100507.53
2023-01-08T05:14:42.556Z,100506.77
2023-01-08T05:15:43.007Z,100506.35
2023-01-08T05:16:43.882Z,100505.68
2023-01-08T05:17:44.477Z,100505.17
2023-01-08T05:18:44.898Z,100505.00
2023-01-08T05:19:45.372Z,100504.25
2023-01-08T05:20:46.294Z,100504.17
2023-01-08T05:21:46.771Z,100504.25
2023-01-08T05:22:47.378Z,100504.54
2023-01-08T05:23:47.920Z,100504.20
2023-01-08T05:24:48.571Z,100504.33
2023-01-08T05:25:49.244Z,100504.75
2023-01-08T05:26:49.699Z,100503.91
2023-01-08T05:27:50.113Z,100504.20
2023-01-08T05:28:50.705Z,100503.78
2023-01-08T05:29:51.165Z,100504.20
2023-01-08T05:30:51.624Z,100503.95
2023-01-08T05:31:52.052Z,100504.29
2023-01-08T05:32:52.603Z,100504.07
2023-01-08T05:33:52.607Z,100504.23
2023-01-08T05:34:53.303Z,100504.66
2023-01-08T05:35:02.074Z,100503.10
2023-01-08T05:36:02.240Z,100502.69
2023-01-08T05:37:03.299Z,100502.77
2023-01-08T05:38:03.867Z,100502.27
2023-01-08T05:39:04.334Z,100501.84
2023-01-08T05:40:04.873Z,100501.05
2023-01-08T05:41:05.507Z,100500.28
2023-01-08T05:42:06.301Z,100499.83
2023-01-08T05:43:06.887Z,100498.90
2023-01-08T05:44:07.507Z,100498.02
2023-01-08T05:45:08.336Z,100497.00
2023-01-08T05:46:08.830Z,100495.63
2023-01-08T05:47:09.351Z,100494.61
2023-01-08T05:48:09.696Z,100493.64
2023-01-08T05:49:10.075Z,100493.39
2023-01-08T05:50:10.498Z,100492.80
2023-01-08T05:51:11.171Z,100491.79
2023-01-08T05:52:11.217Z,100491.37
2023-01-08T05:53:11.689Z,100491.08
2023-01-08T05:54:12.486Z,100490.19
2023-01-08T05:55:12.964Z,100489.85
2023-01-08T05:56:13.379Z,100489.18
2023-01-08T05:57:13.899Z,100487.92
2023-01-08T05:58:14.565Z,100487.16
2023-01-08T05:59:15.093Z,100486.58
2023-01-08T06:00:15.983Z,100485.52
2023-01-08T06:01:16.901Z,100484.84
2023-01-08T06:02:17.737Z,100484.34
2023-01-08T06:03:18.354Z,100483.83
2023-01-08T06:04:18.865Z,100483.16
2023-01-08T06:04:27.503Z,100480.93
2023-01-08T06:05:28.038Z,100480.84
2023-01-08T06:06:28.722Z,100480.84
2023-01-08T06:07:29.566Z,100480.77
2023-01-08T06:08:30.262Z,100480.64
2023-01-08T06:09:31.101Z,100480.30
2023-01-08T06:10:31.682Z,100479.92
2023-01-08T06:11:32.339Z,100480.42
2023-01-08T06:12:32.377Z,100480.64
2023-01-08T06:13:33.167Z,100480.30
2023-01-08T06:14:33.714Z,100480.72
2023-01-08T06:15:34.671Z,100479.80
2023-01-08T06:16:35.327Z,100479.30
2023-01-08T06:17:36.085Z,100478.79
2023-01-08T06:18:36.512Z,100478.32
2023-01-08T06:19:37.074Z,100478.61
2023-01-08T06:20:37.819Z,100479.16
2023-01-08T06:21:38.170Z,100480.13
2023-01-08T06:22:39.062Z,100481.01
2023-01-08T06:23:39.996Z,100481.72
2023-01-08T06:24:40.702Z,100482.52
2023-01-08T06:25:41.513Z,100483.31
2023-01-08T06:26:42.409Z,100484.45
2023-01-08T06:27:43.152Z,100485.96
2023-01-08T06:28:43.720Z,100487.94
2023-01-08T06:29:44.393Z,100489.24
2023-01-08T06:30:45.240Z,100490.97
2023-01-08T06:31:46.090Z,100492.27
2023-01-08T06:32:46.808Z,100493.41
2023-01-08T06:33:47.302Z,100494.75
2023-01-08T06:34:47.936Z,100496.14
2023-01-08T06:34:56.655Z,100523.98
2023-01-08T06:35:57.523Z,100523.81
2023-01-08T06:36:58.048Z,100522.80
2023-01-08T06:37:58.778Z,100523.05
2023-01-08T06:38:59.605Z,100522.97
2023-01-08T06:40:00.397Z,100523.26
2023-01-08T06:41:01.369Z,100523.59
2023-01-08T06:42:02.051Z,100524.56
2023-01-08T06:43:02.819Z,100525.66
2023-01-08T06:44:03.801Z,100526.11
2023-01-08T06:45:04.689Z,100527.71
2023-01-08T06:46:05.636Z,100528.56
2023-01-08T06:47:06.339Z,100529.27
2023-01-08T06:48:07.024Z,100530.61
2023-01-08T06:49:07.633Z,100531.38
2023-01-08T06:50:08.532Z,100532.47
2023-01-08T06:51:09.217Z,100532.97
2023-01-08T06:52:09.851Z,100533.55
2023-01-08T06:53:10.404Z,100534.40
2023-01-08T06:54:13.445Z,100535.58
2023-01-08T06:55:11.712Z,100537.14
2023-01-08T06:56:12.735Z,100538.41
2023-01-08T06:57:12.743Z,100539.58
2023-01-08T06:58:13.600Z,100540.42
2023-01-08T06:59:14.360Z,100541.34
2023-01-08T07:00:14.897Z,100542.06
2023-01-08T07:01:16.064Z,100543.06
2023-01-08T07:02:16.495Z,100544.58
2023-01-08T07:03:17.081Z,100545.51
2023-01-08T07:04:17.643Z,100546.52
2023-01-08T07:04:26.345Z,100566.66
2023-01-08T07:05:27.119Z,100566.75
2023-01-08T07:06:27.887Z,100566.75
2023-01-08T07:07:28.629Z,100566.16
2023-01-08T07:08:29.203Z,100565.77
2023-01-08T07:09:29.977Z,100565.27
2023-01-08T07:10:30.383Z,100565.27
2023-01-08T07:11:30.942Z,100564.93
2023-01-08T07:12:31.434Z,100564.64
2023-01-08T07:13:32.114Z,100564.56
2023-01-08T07:14:33.015Z,100564.39
2023-01-08T07:15:33.664Z,100565.06
2023-01-08T07:16:34.416Z,100564.22
2023-01-08T07:17:34.731Z,100564.61
2023-01-08T07:18:35.299Z,100564.94
2023-01-08T07:19:35.755Z,100564.94
2023-01-08T07:20:36.171Z,100564.94
2023-01-08T07:21:36.489Z,100565.11
2023-01-08T07:22:36.994Z,100565.11
2023-01-08T07:23:37.088Z,100564.78
2023-01-08T07:24:37.605Z,100564.27
2023-01-08T07:25:38.539Z,100564.44
2023-01-08T07:26:38.540Z,100564.55
2023-01-08T07:27:39.031Z,100564.56
2023-01-08T07:28:39.928Z,100564.98
2023-01-08T07:29:40.495Z,100564.98
2023-01-08T07:30:41.280Z,100564.55
2023-01-08T07:31:42.357Z,100563.43
2023-01-08T07:32:42.774Z,100562.25
2023-01-08T07:33:43.504Z,100560.81
2023-01-08T07:33:52.692Z,100547.34
2023-01-08T07:34:53.204Z,100546.93
2023-01-08T07:35:53.842Z,100546.42
2023-01-08T07:36:54.366Z,100546.59
2023-01-08T07:37:54.392Z,100546.93
2023-01-08T07:38:55.052Z,100547.69
2023-01-08T07:39:55.562Z,100548.19
2023-01-08T07:40:56.469Z,100549.45
2023-01-08T07:41:56.635Z,100550.54
2023-01-08T07:42:57.473Z,100551.09
2023-01-08T07:43:58.029Z,100552.02
2023-01-08T07:44:58.738Z,100552.61
2023-01-08T07:45:59.479Z,100553.79
2023-01-08T07:47:00.336Z,100555.25
2023-01-08T07:48:01.028Z,100556.60
2023-01-08T07:49:01.832Z,100557.44
2023-01-08T07:50:02.600Z,100558.28
2023-01-08T07:51:03.486Z,100558.54
2023-01-08T07:52:03.879Z,100558.70
2023-01-08T07:53:04.590Z,100559.38
2023-01-08T07:54:05.355Z,100559.97
2023-01-08T07:55:06.008Z,100560.90
2023-01-08T07:56:06.893Z,100561.44
2023-01-08T07:57:07.538Z,100562.79
2023-01-08T07:58:08.521Z,100563.84
2023-01-08T07:59:09.363Z,100564.46
2023-01-08T08:00:10.012Z,100565.47
2023-01-08T08:01:10.910Z,100566.15
2023-01-08T08:02:12.054Z,100566.31
2023-01-08T08:02:23.671Z,100574.38
2023-01-08T08:03:24.318Z,100574.12
2023-01-08T08:04:25.142Z,100573.70
2023-01-08T08:05:25.234Z,100572.69
2023-01-08T08:06:25.947Z,100572.02
2023-01-08T08:07:26.834Z,100571.25
2023-01-08T08:08:27.752Z,100570.75
2023-01-08T08:09:28.442Z,100569.45
2023-01-08T08:10:29.200Z,100568.52
2023-01-08T08:11:29.894Z,100567.00
2023-01-08T08:12:30.856Z,100565.80
2023-01-08T08:13:31.123Z,100564.44
2023-01-08T08:14:31.800Z,100562.72
2023-01-08T08:15:32.386Z,100561.09
2023-01-08T08:16:33.212Z,100559.45
2023-01-08T08:17:34.003Z,100557.73
2023-01-08T08:18:34.545Z,100556.17
2023-01-08T08:19:35.160Z,100553.70
2023-01-08T08:20:36.071Z,100551.47
2023-01-08T08:21:36.828Z,100548.56
2023-01-08T08:22:37.556Z,100546.33
2023-01-08T08:23:38.329Z,100543.59
2023-01-08T08:24:38.992Z,100541.03
2023-01-08T08:25:39.660Z,100538.39
2023-01-08T08:26:40.558Z,100535.73
2023-01-08T08:27:41.300Z,100534.05
2023-01-08T08:28:41.951Z,100532.45
2023-01-08T08:29:42.761Z,100530.73
2023-01-08T08:30:43.657Z,100529.43
2023-01-08T08:31:44.441Z,100527.83
2023-01-08T08:32:44.884Z,100526.52
2023-01-08T08:33:44.761Z,100524.87
2023-01-08T08:33:53.444Z,100508.27
2023-01-08T08:34:54.229Z,100509.11
2023-01-08T08:35:55.034Z,100508.52
2023-01-08T08:36:55.051Z,100508.23
2023-01-08T08:37:55.229Z,100508.65
2023-01-08T08:38:55.849Z,100508.73
2023-01-08T08:39:56.444Z,100508.27
2023-01-08T08:40:57.306Z,100508.44
2023-01-08T08:41:57.966Z,100507.69
2023-01-08T08:42:58.689Z,100507.69
2023-01-08T08:43:59.194Z,100507.84
2023-01-08T08:44:59.519Z,100507.69
2023-01-08T08:46:00.327Z,100508.27
2023-01-08T08:47:00.811Z,100507.84
2023-01-08T08:48:01.219Z,100508.44
2023-01-08T08:49:01.819Z,100508.56
2023-01-08T08:50:02.382Z,100508.98
2023-01-08T08:51:02.470Z,100509.15
2023-01-08T08:52:03.340Z,100509.15
2023-01-08T08:53:03.985Z,100509.23
2023-01-08T08:54:04.753Z,100509.20
2023-01-08T08:55:05.106Z,100508.94
2023-01-08T08:56:05.436Z,100508.40
2023-01-08T08:57:05.765Z,100508.06
2023-01-08T08:58:06.567Z,100508.02
2023-01-08T08:59:07.253Z,100507.59
2023-01-08T09:00:07.273Z,100507.51
2023-01-08T09:01:07.719Z,100507.05
2023-01-08T09:02:08.748Z,100506.38
2023-01-08T09:02:17.403Z,100507.30
2023-01-08T09:03:18.205Z,100506.88
2023-01-08T09:04:18.801Z,100505.63
2023-01-08T09:05:19.735Z,100504.73
2023-01-08T09:06:19.832Z,100503.56
2023-01-08T09:07:20.592Z,100503.31
2023-01-08T09:08:21.186Z,100502.42
2023-01-08T09:09:21.786Z,100501.33
2023-01-08T09:10:22.399Z,100500.48
2023-01-08T09:11:23.874Z,100499.22
2023-01-08T09:12:23.951Z,100497.74
2023-01-08T09:13:24.203Z,100496.65
2023-01-08T09:14:24.761Z,100495.22
2023-01-08T09:15:25.492Z,100494.13
2023-01-08T09:16:26.279Z,100493.41
2023-01-08T09:17:26.818Z,100492.31
2023-01-08T09:18:27.708Z,100491.30
2023-01-08T09:19:28.146Z,100490.09
2023-01-08T09:20:28.804Z,100488.82
2023-01-08T09:21:29.392Z,100488.27
2023-01-08T09:22:29.844Z,100487.34
2023-01-08T09:23:30.521Z,100486.00
2023-01-08T09:24:31.270Z,100486.25
2023-01-08T09:25:32.195Z,100485.91
2023-01-08T09:26:32.421Z,100485.16
2023-01-08T09:27:32.798Z,100485.49
2023-01-08T09:28:33.602Z,100485.33
2023-01-08T09:29:34.302Z,100485.32
2023-01-08T09:30:35.173Z,100485.54
2023-01-08T09:30:44.925Z,100492.70
2023-01-08T09:31:45.764Z,100493.03
2023-01-08T09:32:46.580Z,100492.28
2023-01-08T09:33:46.970Z,100492.19
2023-01-08T09:34:47.318Z,100491.73
2023-01-08T09:35:47.781Z,100492.08
2023-01-08T09:36:48.230Z,100492.58
2023-01-08T09:37:48.692Z,100493.09
2023-01-08T09:38:49.573Z,100493.84
2023-01-08T09:39:57.676Z,100494.94
2023-01-08T09:40:50.452Z,100497.04
2023-01-08T09:41:51.032Z,100498.72
2023-01-08T09:42:51.534Z,100500.58
2023-01-08T09:43:51.884Z,100502.17
2023-01-08T09:44:52.198Z,100503.35
2023-01-08T09:45:52.761Z,100504.61
2023-01-08T09:46:53.257Z,100505.75
2023-01-08T09:47:53.666Z,100507.06
2023-01-08T09:48:54.153Z,100508.08
2023-01-08T09:49:54.380Z,100509.22
2023-01-08T09:50:55.177Z,100510.30
2023-01-08T09:51:55.685Z,100511.11
2023-01-08T09:52:56.066Z,100511.91
2023-01-08T09:53:56.431Z,100512.72
2023-01-08T09:54:56.818Z,100512.54
2023-01-08T09:56:09.161Z,100512.25
2023-01-08T09:56:57.929Z,100511.20
2023-01-08T09:57:58.271Z,100509.94
2023-01-08T09:58:58.603Z,100507.36
2023-01-08T09:59:59.123Z,100505.34
2023-01-08T10:00:59.736Z,100502.56
2023-01-08T10:02:00.333Z,100499.61
2023-01-08T10:02:11.095Z,100453.50
2023-01-08T10:03:11.649Z,100453.42
2023-01-08T10:04:12.325Z,100451.91
2023-01-08T10:05:13.063Z,100450.47
2023-01-08T10:06:13.580Z,100447.47
2023-01-08T10:07:14.384Z,100444.05
2023-01-08T10:08:14.876Z,100440.89
2023-01-08T10:09:15.271Z,100436.92
2023-01-08T10:10:16.176Z,100433.21
2023-01-08T10:11:16.622Z,100429.36
2023-01-08T10:12:17.073Z,100425.56
2023-01-08T10:13:17.329Z,100422.27
2023-01-08T10:14:17.811Z,100418.52
2023-01-08T10:15:17.939Z,100414.88
2023-01-08T10:16:18.342Z,100411.62
2023-01-08T10:17:19.069Z,100407.58
2023-01-08T10:18:19.332Z,100403.48
2023-01-08T10:19:20.153Z,100399.17
2023-01-08T10:20:20.442Z,100394.95
2023-01-08T10:21:21.044Z,100390.64
2023-01-08T10:22:21.634Z,100386.37
2023-01-08T10:23:22.002Z,100381.78
2023-01-08T10:24:22.332Z,100376.92
2023-01-08T10:25:22.771Z,100371.55
2023-01-08T10:26:23.089Z,100366.48
2023-01-08T10:27:23.486Z,100361.59
2023-01-08T10:28:24.172Z,100357.23
2023-01-08T10:29:24.510Z,100352.38
2023-01-08T10:30:24.982Z,100348.23
2023-01-08T10:31:25.136Z,100343.80
2023-01-08T10:31:35.970Z,100289.23
2023-01-08T10:32:36.728Z,100288.95
2023-01-08T10:33:37.022Z,100287.96
2023-01-08T10:34:37.682Z,100286.14
2023-01-08T10:35:37.713Z,100284.32
2023-01-08T10:36:38.434Z,100283.52
2023-01-08T10:37:38.873Z,100282.73
2023-01-08T10:38:38.901Z,100282.10
2023-01-08T10:39:39.488Z,100281.14
2023-01-08T10:40:40.164Z,100279.79
2023-01-08T10:41:40.187Z,100279.10
2023-01-08T10:42:40.931Z,100277.95
2023-01-08T10:43:41.635Z,100276.94
2023-01-08T10:44:42.630Z,100276.39
2023-01-08T10:45:43.118Z,100274.44
2023-01-08T10:46:43.499Z,100273.39
2023-01-08T10:47:44.073Z,100271.06
2023-01-08T10:48:44.375Z,100269.15
2023-01-08T10:49:44.770Z,100266.98
2023-01-08T10:50:45.654Z,100264.83
2023-01-08T10:51:46.086Z,100262.33
2023-01-08T10:52:46.523Z,100260.42
2023-01-08T10:53:46.785Z,100259.00
2023-01-08T10:54:47.532Z,100256.97
2023-01-08T10:55:48.245Z,100255.56
2023-01-08T10:56:48.619Z,100253.85
2023-01-08T10:57:49.072Z,100252.24
2023-01-08T10:58:49.759Z,100250.91
2023-01-08T10:59:50.277Z,100249.08
2023-01-08T11:00:50.710Z,100247.27
2023-01-08T11:00:59.441Z,100220.88
2023-01-08T11:02:00.130Z,100219.96
2023-01-08T11:03:00.255Z,100219.27
2023-01-08T11:04:00.987Z,100218.63
2023-01-08T11:05:01.799Z,100218.24
2023-01-08T11:06:02.296Z,100217.44
2023-01-08T11:07:03.102Z,100216.87
2023-01-08T11:08:03.733Z,100216.14
2023-01-08T11:09:04.091Z,100215.08
2023-01-08T11:10:04.547Z,100214.53
2023-01-08T11:11:04.957Z,100213.84